sensor_id;sensor_type;location;lat;lon;timestamp;temperature;humidity
18309;DHT22;9280;50.276;18.650;2022-11-06T00:00:22;6.20;99.90
18309;DHT22;9280;50.276;18.650;2022-11-06T00:03:09;6.10;99.90
18309;DHT22;9280;50.276;18.650;2022-11-06T00:05:55;6.20;99.90
18309;DHT22;9280;50.276;18.650;2022-11-06T00:08:58;6.10;99.90
18309;DHT22;9280;50.276;18.650;2022-11-06T00:11:47;6.10;99.90
18309;DHT22;9280;50.276;18.650;2022-11-06T00:14:34;6.10;99.90
18309;DHT22;9280;50.276;18.650;2022-11-06T00:17:19;6.10;99.90
18309;DHT22;9280;50.276;18.650;2022-11-06T00:20:06;6.10;99.90
18309;DHT22;9280;50.276;18.650;2022-11-06T00:22:53;6.10;99.90
18309;DHT22;9280;50.276;18.650;2022-11-06T00:25:40;6.10;99.90
18309;DHT22;9280;50.276;18.650;2022-11-06T00:28:28;6.10;99.90
18309;DHT22;9280;50.276;18.650;2022-11-06T00:31:16;6.10;99.90
18309;DHT22;9280;50.276;18.650;2022-11-06T00:34:04;6.10;99.90
18309;DHT22;9280;50.276;18.650;2022-11-06T00:36:51;6.00;99.90
18309;DHT22;9280;50.276;18.650;2022-11-06T00:39:37;6.00;99.90
18309;DHT22;9280;50.276;18.650;2022-11-06T00:42:23;6.00;99.90
18309;DHT22;9280;50.276;18.650;2022-11-06T00:45:10;6.00;99.90
18309;DHT22;9280;50.276;18.650;2022-11-06T00:47:57;6.00;99.90
18309;DHT22;9280;50.276;18.650;2022-11-06T00:50:43;6.00;99.90
18309;DHT22;9280;50.276;18.650;2022-11-06T00:53:29;5.90;99.90
18309;DHT22;9280;50.276;18.650;2022-11-06T00:56:17;5.90;99.90
18309;DHT22;9280;50.276;18.650;2022-11-06T00:59:05;5.80;99.90
18309;DHT22;9280;50.276;18.650;2022-11-06T01:01:52;5.80;99.90
18309;DHT22;9280;50.276;18.650;2022-11-06T01:04:38;5.80;99.90
18309;DHT22;9280;50.276;18.650;2022-11-06T01:07:24;5.70;99.90
18309;DHT22;9280;50.276;18.650;2022-11-06T01:10:10;5.70;99.90
18309;DHT22;9280;50.276;18.650;2022-11-06T01:12:59;5.60;99.90
18309;DHT22;9280;50.276;18.650;2022-11-06T01:15:45;5.60;99.90
18309;DHT22;9280;50.276;18.650;2022-11-06T01:18:33;5.50;99.90
18309;DHT22;9280;50.276;18.650;2022-11-06T01:21:22;5.50;99.90
18309;DHT22;9280;50.276;18.650;2022-11-06T01:24:11;5.40;99.90
18309;DHT22;9280;50.276;18.650;2022-11-06T01:26:57;5.40;99.90
18309;DHT22;9280;50.276;18.650;2022-11-06T01:29:43;5.30;99.90
18309;DHT22;9280;50.276;18.650;2022-11-06T01:32:29;5.30;99.90
18309;DHT22;9280;50.276;18.650;2022-11-06T01:35:17;5.30;99.90
18309;DHT22;9280;50.276;18.650;2022-11-06T01:38:03;5.20;99.90
18309;DHT22;9280;50.276;18.650;2022-11-06T01:40:49;5.10;99.90
18309;DHT22;9280;50.276;18.650;2022-11-06T01:43:47;5.10;99.90
18309;DHT22;9280;50.276;18.650;2022-11-06T01:46:34;5.10;99.90
18309;DHT22;9280;50.276;18.650;2022-11-06T01:49:21;5.00;99.90
18309;DHT22;9280;50.276;18.650;2022-11-06T01:52:10;5.00;99.90
18309;DHT22;9280;50.276;18.650;2022-11-06T01:55:08;4.90;99.90
18309;DHT22;9280;50.276;18.650;2022-11-06T01:57:55;4.90;99.90
18309;DHT22;9280;50.276;18.650;2022-11-06T02:00:42;4.80;99.90
18309;DHT22;9280;50.276;18.650;2022-11-06T02:03:29;4.80;99.90
18309;DHT22;9280;50.276;18.650;2022-11-06T02:06:15;4.70;99.90
18309;DHT22;9280;50.276;18.650;2022-11-06T02:09:03;4.70;99.90
18309;DHT22;9280;50.276;18.650;2022-11-06T02:11:58;4.60;99.90
18309;DHT22;9280;50.276;18.650;2022-11-06T02:14:59;4.60;99.90
18309;DHT22;9280;50.276;18.650;2022-11-06T02:17:59;4.50;99.90
18309;DHT22;9280;50.276;18.650;2022-11-06T02:20:58;4.50;99.90
18309;DHT22;9280;50.276;18.650;2022-11-06T02:24:05;4.40;99.90
18309;DHT22;9280;50.276;18.650;2022-11-06T02:26:59;4.30;99.90
18309;DHT22;9280;50.276;18.650;2022-11-06T02:29:52;4.30;99.90
18309;DHT22;9280;50.276;18.650;2022-11-06T02:32:43;4.30;99.90
18309;DHT22;9280;50.276;18.650;2022-11-06T02:35:32;4.20;99.90
18309;DHT22;9280;50.276;18.650;2022-11-06T02:38:22;4.10;99.90
18309;DHT22;9280;50.276;18.650;2022-11-06T02:41:12;4.00;99.90
18309;DHT22;9280;50.276;18.650;2022-11-06T02:44:06;4.00;99.90
18309;DHT22;9280;50.276;18.650;2022-11-06T02:46:54;3.90;99.90
18309;DHT22;9280;50.276;18.650;2022-11-06T02:49:44;3.90;99.90
18309;DHT22;9280;50.276;18.650;2022-11-06T02:52:36;3.90;99.90
18309;DHT22;9280;50.276;18.650;2022-11-06T02:55:27;3.80;99.90
18309;DHT22;9280;50.276;18.650;2022-11-06T02:58:16;3.90;99.90
18309;DHT22;9280;50.276;18.650;2022-11-06T03:01:08;3.90;99.90
18309;DHT22;9280;50.276;18.650;2022-11-06T03:03:58;3.90;99.90
18309;DHT22;9280;50.276;18.650;2022-11-06T03:06:48;4.00;99.90
18309;DHT22;9280;50.276;18.650;2022-11-06T03:09:36;4.10;99.90
18309;DHT22;9280;50.276;18.650;2022-11-06T03:12:25;4.20;99.90
18309;DHT22;9280;50.276;18.650;2022-11-06T03:15:18;4.40;99.90
18309;DHT22;9280;50.276;18.650;2022-11-06T03:18:10;4.50;99.90
18309;DHT22;9280;50.276;18.650;2022-11-06T03:20:59;4.60;99.90
18309;DHT22;9280;50.276;18.650;2022-11-06T03:23:49;4.70;99.90
18309;DHT22;9280;50.276;18.650;2022-11-06T03:26:41;4.70;99.90
18309;DHT22;9280;50.276;18.650;2022-11-06T03:29:33;4.80;99.90
18309;DHT22;9280;50.276;18.650;2022-11-06T03:32:28;4.80;99.90
18309;DHT22;9280;50.276;18.650;2022-11-06T03:35:20;4.80;99.90
18309;DHT22;9280;50.276;18.650;2022-11-06T03:38:11;4.70;99.90
18309;DHT22;9280;50.276;18.650;2022-11-06T03:41:02;4.80;99.90
18309;DHT22;9280;50.276;18.650;2022-11-06T03:43:52;4.70;99.90
18309;DHT22;9280;50.276;18.650;2022-11-06T03:46:43;4.70;99.90
18309;DHT22;9280;50.276;18.650;2022-11-06T03:49:34;4.70;99.90
18309;DHT22;9280;50.276;18.650;2022-11-06T03:52:27;4.70;99.90
18309;DHT22;9280;50.276;18.650;2022-11-06T03:55:17;4.60;99.90
18309;DHT22;9280;50.276;18.650;2022-11-06T03:58:05;4.60;99.90
18309;DHT22;9280;50.276;18.650;2022-11-06T04:00:55;4.50;99.90
18309;DHT22;9280;50.276;18.650;2022-11-06T04:03:46;4.40;99.90
18309;DHT22;9280;50.276;18.650;2022-11-06T04:06:38;4.40;99.90
18309;DHT22;9280;50.276;18.650;2022-11-06T04:09:29;4.30;99.90
18309;DHT22;9280;50.276;18.650;2022-11-06T04:12:34;4.30;99.90
18309;DHT22;9280;50.276;18.650;2022-11-06T04:15:47;4.20;99.90
18309;DHT22;9280;50.276;18.650;2022-11-06T04:18:33;4.20;99.90
18309;DHT22;9280;50.276;18.650;2022-11-06T04:21:25;4.20;99.90
18309;DHT22;9280;50.276;18.650;2022-11-06T04:24:21;4.20;99.90
18309;DHT22;9280;50.276;18.650;2022-11-06T04:27:42;4.10;99.90
18309;DHT22;9280;50.276;18.650;2022-11-06T04:30:34;4.10;99.90
18309;DHT22;9280;50.276;18.650;2022-11-06T04:33:26;4.10;99.90
18309;DHT22;9280;50.276;18.650;2022-11-06T04:36:19;4.10;99.90
18309;DHT22;9280;50.276;18.650;2022-11-06T04:39:14;4.10;99.90
18309;DHT22;9280;50.276;18.650;2022-11-06T04:42:07;4.10;99.90
18309;DHT22;9280;50.276;18.650;2022-11-06T04:45:00;4.10;99.90
18309;DHT22;9280;50.276;18.650;2022-11-06T04:47:49;4.20;99.90
18309;DHT22;9280;50.276;18.650;2022-11-06T04:50:39;4.20;99.90
18309;DHT22;9280;50.276;18.650;2022-11-06T04:53:38;4.20;99.90
18309;DHT22;9280;50.276;18.650;2022-11-06T04:56:28;4.30;99.90
18309;DHT22;9280;50.276;18.650;2022-11-06T04:59:16;4.30;99.90
18309;DHT22;9280;50.276;18.650;2022-11-06T05:02:04;4.30;99.90
18309;DHT22;9280;50.276;18.650;2022-11-06T05:04:50;4.30;99.90
18309;DHT22;9280;50.276;18.650;2022-11-06T05:07:37;4.40;99.90
18309;DHT22;9280;50.276;18.650;2022-11-06T05:10:23;4.40;99.90
18309;DHT22;9280;50.276;18.650;2022-11-06T05:13:09;4.50;99.90
18309;DHT22;9280;50.276;18.650;2022-11-06T05:15:55;4.50;99.90
18309;DHT22;9280;50.276;18.650;2022-11-06T05:18:43;4.50;99.90
18309;DHT22;9280;50.276;18.650;2022-11-06T05:21:29;4.50;99.90
18309;DHT22;9280;50.276;18.650;2022-11-06T05:24:33;4.50;99.90
18309;DHT22;9280;50.276;18.650;2022-11-06T05:27:19;4.50;99.90
18309;DHT22;9280;50.276;18.650;2022-11-06T05:30:07;4.50;99.90
18309;DHT22;9280;50.276;18.650;2022-11-06T05:32:54;4.50;99.90
18309;DHT22;9280;50.276;18.650;2022-11-06T05:35:41;4.50;99.90
18309;DHT22;9280;50.276;18.650;2022-11-06T05:38:27;4.50;99.90
18309;DHT22;9280;50.276;18.650;2022-11-06T05:41:13;4.50;99.90
18309;DHT22;9280;50.276;18.650;2022-11-06T05:43:59;4.50;99.90
18309;DHT22;9280;50.276;18.650;2022-11-06T05:46:45;4.40;99.90
18309;DHT22;9280;50.276;18.650;2022-11-06T05:49:31;4.30;99.90
18309;DHT22;9280;50.276;18.650;2022-11-06T05:52:19;4.30;99.90
18309;DHT22;9280;50.276;18.650;2022-11-06T05:55:06;4.40;99.90
18309;DHT22;9280;50.276;18.650;2022-11-06T05:57:51;4.40;99.90
18309;DHT22;9280;50.276;18.650;2022-11-06T06:00:38;4.40;99.90
18309;DHT22;9280;50.276;18.650;2022-11-06T06:03:24;4.50;99.90
18309;DHT22;9280;50.276;18.650;2022-11-06T06:06:11;4.60;99.90
18309;DHT22;9280;50.276;18.650;2022-11-06T06:08:58;4.60;99.90
18309;DHT22;9280;50.276;18.650;2022-11-06T06:11:44;4.60;99.90
18309;DHT22;9280;50.276;18.650;2022-11-06T06:14:30;4.60;99.90
18309;DHT22;9280;50.276;18.650;2022-11-06T06:17:17;4.60;99.90
18309;DHT22;9280;50.276;18.650;2022-11-06T06:20:04;4.70;99.90
18309;DHT22;9280;50.276;18.650;2022-11-06T06:22:54;4.80;99.90
18309;DHT22;9280;50.276;18.650;2022-11-06T06:25:41;4.80;99.90
18309;DHT22;9280;50.276;18.650;2022-11-06T06:28:27;4.80;99.90
18309;DHT22;9280;50.276;18.650;2022-11-06T06:31:14;4.80;99.90
18309;DHT22;9280;50.276;18.650;2022-11-06T06:34:00;4.90;99.90
18309;DHT22;9280;50.276;18.650;2022-11-06T06:36:48;4.90;99.90
18309;DHT22;9280;50.276;18.650;2022-11-06T06:39:35;4.90;99.90
18309;DHT22;9280;50.276;18.650;2022-11-06T06:42:23;4.90;99.90
18309;DHT22;9280;50.276;18.650;2022-11-06T06:45:09;4.90;99.90
18309;DHT22;9280;50.276;18.650;2022-11-06T06:48:01;5.00;99.90
18309;DHT22;9280;50.276;18.650;2022-11-06T06:50:47;5.00;99.90
18309;DHT22;9280;50.276;18.650;2022-11-06T06:53:34;5.10;99.90
18309;DHT22;9280;50.276;18.650;2022-11-06T06:56:20;5.20;99.90
18309;DHT22;9280;50.276;18.650;2022-11-06T06:59:07;5.40;99.90
18309;DHT22;9280;50.276;18.650;2022-11-06T07:01:53;5.70;99.90
18309;DHT22;9280;50.276;18.650;2022-11-06T07:04:39;5.70;99.90
18309;DHT22;9280;50.276;18.650;2022-11-06T07:07:25;5.70;99.90
18309;DHT22;9280;50.276;18.650;2022-11-06T07:10:11;5.80;99.90
18309;DHT22;9280;50.276;18.650;2022-11-06T07:13:00;5.80;99.90
18309;DHT22;9280;50.276;18.650;2022-11-06T07:15:47;6.00;99.90
18309;DHT22;9280;50.276;18.650;2022-11-06T07:18:33;6.00;99.90
18309;DHT22;9280;50.276;18.650;2022-11-06T07:21:20;6.00;99.90
18309;DHT22;9280;50.276;18.650;2022-11-06T07:24:07;6.10;99.90
18309;DHT22;9280;50.276;18.650;2022-11-06T07:26:53;6.20;99.90
18309;DHT22;9280;50.276;18.650;2022-11-06T07:29:39;6.30;99.90
18309;DHT22;9280;50.276;18.650;2022-11-06T07:32:27;6.30;99.90
18309;DHT22;9280;50.276;18.650;2022-11-06T07:35:13;6.50;99.90
18309;DHT22;9280;50.276;18.650;2022-11-06T07:38:02;6.50;99.90
18309;DHT22;9280;50.276;18.650;2022-11-06T07:40:49;6.40;99.90
18309;DHT22;9280;50.276;18.650;2022-11-06T07:43:35;6.50;99.90
18309;DHT22;9280;50.276;18.650;2022-11-06T07:46:21;6.50;99.90
18309;DHT22;9280;50.276;18.650;2022-11-06T07:49:09;6.60;99.90
18309;DHT22;9280;50.276;18.650;2022-11-06T07:51:56;6.70;99.90
18309;DHT22;9280;50.276;18.650;2022-11-06T07:54:42;6.80;99.90
18309;DHT22;9280;50.276;18.650;2022-11-06T07:57:29;6.90;99.90
18309;DHT22;9280;50.276;18.650;2022-11-06T08:00:15;7.00;99.90
18309;DHT22;9280;50.276;18.650;2022-11-06T08:03:02;7.00;99.90
18309;DHT22;9280;50.276;18.650;2022-11-06T08:05:50;7.00;99.90
18309;DHT22;9280;50.276;18.650;2022-11-06T08:08:36;7.00;99.90
18309;DHT22;9280;50.276;18.650;2022-11-06T08:11:22;7.00;99.90
18309;DHT22;9280;50.276;18.650;2022-11-06T08:14:09;6.90;99.90
18309;DHT22;9280;50.276;18.650;2022-11-06T08:16:56;7.00;99.90
18309;DHT22;9280;50.276;18.650;2022-11-06T08:19:42;7.10;99.90
18309;DHT22;9280;50.276;18.650;2022-11-06T08:22:30;7.30;99.90
18309;DHT22;9280;50.276;18.650;2022-11-06T08:25:17;7.40;99.90
18309;DHT22;9280;50.276;18.650;2022-11-06T08:28:04;7.50;99.90
18309;DHT22;9280;50.276;18.650;2022-11-06T08:30:50;7.60;99.90
18309;DHT22;9280;50.276;18.650;2022-11-06T08:33:37;7.60;99.90
18309;DHT22;9280;50.276;18.650;2022-11-06T08:36:24;7.70;99.90
18309;DHT22;9280;50.276;18.650;2022-11-06T08:39:12;7.80;99.90
18309;DHT22;9280;50.276;18.650;2022-11-06T08:41:57;8.00;99.90
18309;DHT22;9280;50.276;18.650;2022-11-06T08:44:44;8.10;99.90
18309;DHT22;9280;50.276;18.650;2022-11-06T08:47:30;8.10;99.90
18309;DHT22;9280;50.276;18.650;2022-11-06T08:50:16;8.10;99.90
18309;DHT22;9280;50.276;18.650;2022-11-06T08:53:02;8.00;99.90
18309;DHT22;9280;50.276;18.650;2022-11-06T08:55:51;8.00;99.90
18309;DHT22;9280;50.276;18.650;2022-11-06T08:58:37;8.10;99.90
18309;DHT22;9280;50.276;18.650;2022-11-06T09:01:23;8.30;99.90
18309;DHT22;9280;50.276;18.650;2022-11-06T09:04:10;8.20;99.90
18309;DHT22;9280;50.276;18.650;2022-11-06T09:06:56;8.20;99.90
18309;DHT22;9280;50.276;18.650;2022-11-06T09:09:42;8.30;99.90
18309;DHT22;9280;50.276;18.650;2022-11-06T09:12:31;8.50;99.90
18309;DHT22;9280;50.276;18.650;2022-11-06T09:15:18;8.70;99.90
18309;DHT22;9280;50.276;18.650;2022-11-06T09:18:05;8.60;99.90
18309;DHT22;9280;50.276;18.650;2022-11-06T09:20:53;8.80;99.90
18309;DHT22;9280;50.276;18.650;2022-11-06T09:23:39;8.90;99.90
18309;DHT22;9280;50.276;18.650;2022-11-06T09:26:25;8.90;99.90
18309;DHT22;9280;50.276;18.650;2022-11-06T09:29:13;9.10;99.90
18309;DHT22;9280;50.276;18.650;2022-11-06T09:31:59;9.10;99.90
18309;DHT22;9280;50.276;18.650;2022-11-06T09:34:45;9.10;99.90
18309;DHT22;9280;50.276;18.650;2022-11-06T09:37:31;9.20;99.90
18309;DHT22;9280;50.276;18.650;2022-11-06T09:40:20;9.50;99.90
18309;DHT22;9280;50.276;18.650;2022-11-06T09:46:20;9.50;99.90
18309;DHT22;9280;50.276;18.650;2022-11-06T09:49:14;9.60;99.90
18309;DHT22;9280;50.276;18.650;2022-11-06T09:52:07;9.80;99.90
18309;DHT22;9280;50.276;18.650;2022-11-06T09:54:58;10.00;99.90
18309;DHT22;9280;50.276;18.650;2022-11-06T09:57:48;10.10;99.90
18309;DHT22;9280;50.276;18.650;2022-11-06T10:00:36;10.20;99.90
18309;DHT22;9280;50.276;18.650;2022-11-06T10:03:30;10.20;99.90
18309;DHT22;9280;50.276;18.650;2022-11-06T10:06:18;10.00;99.90
18309;DHT22;9280;50.276;18.650;2022-11-06T10:09:05;10.00;99.90
18309;DHT22;9280;50.276;18.650;2022-11-06T10:11:57;10.00;99.90
18309;DHT22;9280;50.276;18.650;2022-11-06T10:14:55;10.10;99.90
18309;DHT22;9280;50.276;18.650;2022-11-06T10:17:53;10.10;99.90
18309;DHT22;9280;50.276;18.650;2022-11-06T10:20:46;10.30;99.90
18309;DHT22;9280;50.276;18.650;2022-11-06T10:23:44;10.70;99.90
18309;DHT22;9280;50.276;18.650;2022-11-06T10:26:36;10.80;99.90
18309;DHT22;9280;50.276;18.650;2022-11-06T10:29:54;11.10;99.90
18309;DHT22;9280;50.276;18.650;2022-11-06T10:33:00;11.20;99.90
18309;DHT22;9280;50.276;18.650;2022-11-06T10:35:54;10.90;99.90
18309;DHT22;9280;50.276;18.650;2022-11-06T10:38:43;10.60;99.90
18309;DHT22;9280;50.276;18.650;2022-11-06T10:41:34;10.70;99.90
18309;DHT22;9280;50.276;18.650;2022-11-06T10:44:24;10.60;99.90
18309;DHT22;9280;50.276;18.650;2022-11-06T10:47:18;10.60;99.90
18309;DHT22;9280;50.276;18.650;2022-11-06T10:50:10;10.60;99.90
18309;DHT22;9280;50.276;18.650;2022-11-06T10:53:00;10.70;99.90
18309;DHT22;9280;50.276;18.650;2022-11-06T10:56:07;10.90;99.90
18309;DHT22;9280;50.276;18.650;2022-11-06T10:58:56;10.80;99.90
18309;DHT22;9280;50.276;18.650;2022-11-06T11:01:42;10.70;99.90
18309;DHT22;9280;50.276;18.650;2022-11-06T11:04:30;10.70;99.90
18309;DHT22;9280;50.276;18.650;2022-11-06T11:07:17;11.10;99.90
18309;DHT22;9280;50.276;18.650;2022-11-06T11:12:57;11.50;99.90
18309;DHT22;9280;50.276;18.650;2022-11-06T11:15:45;12.10;99.90
18309;DHT22;9280;50.276;18.650;2022-11-06T11:18:32;12.40;99.90
18309;DHT22;9280;50.276;18.650;2022-11-06T11:21:23;13.00;99.90
18309;DHT22;9280;50.276;18.650;2022-11-06T11:24:10;12.80;99.90
18309;DHT22;9280;50.276;18.650;2022-11-06T11:26:58;12.30;99.90
18309;DHT22;9280;50.276;18.650;2022-11-06T11:29:48;12.30;99.90
18309;DHT22;9280;50.276;18.650;2022-11-06T11:32:34;12.30;99.90
18309;DHT22;9280;50.276;18.650;2022-11-06T11:35:24;12.20;99.90
18309;DHT22;9280;50.276;18.650;2022-11-06T11:38:13;12.00;99.90
18309;DHT22;9280;50.276;18.650;2022-11-06T11:41:06;12.00;99.90
18309;DHT22;9280;50.276;18.650;2022-11-06T11:43:57;12.00;99.90
18309;DHT22;9280;50.276;18.650;2022-11-06T11:46:51;12.10;99.90
18309;DHT22;9280;50.276;18.650;2022-11-06T11:49:37;12.20;99.90
18309;DHT22;9280;50.276;18.650;2022-11-06T11:52:24;12.30;99.90
18309;DHT22;9280;50.276;18.650;2022-11-06T11:55:14;12.40;99.90
18309;DHT22;9280;50.276;18.650;2022-11-06T11:58:01;12.70;99.90
18309;DHT22;9280;50.276;18.650;2022-11-06T12:00:53;15.70;99.90
18309;DHT22;9280;50.276;18.650;2022-11-06T12:03:44;19.10;99.90
18309;DHT22;9280;50.276;18.650;2022-11-06T12:06:32;21.60;92.80
18309;DHT22;9280;50.276;18.650;2022-11-06T12:09:18;23.70;78.90
18309;DHT22;9280;50.276;18.650;2022-11-06T12:12:05;25.30;58.10
18309;DHT22;9280;50.276;18.650;2022-11-06T12:15:17;26.50;51.10
18309;DHT22;9280;50.276;18.650;2022-11-06T12:18:06;27.50;48.80
18309;DHT22;9280;50.276;18.650;2022-11-06T12:21:01;28.80;40.70
18309;DHT22;9280;50.276;18.650;2022-11-06T12:23:52;28.70;38.90
18309;DHT22;9280;50.276;18.650;2022-11-06T12:26:45;26.50;39.80
18309;DHT22;9280;50.276;18.650;2022-11-06T12:29:35;27.10;39.20
18309;DHT22;9280;50.276;18.650;2022-11-06T12:32:28;27.30;37.50
18309;DHT22;9280;50.276;18.650;2022-11-06T12:35:26;27.20;37.90
18309;DHT22;9280;50.276;18.650;2022-11-06T12:38:20;27.30;37.20
18309;DHT22;9280;50.276;18.650;2022-11-06T12:41:12;27.60;36.70
18309;DHT22;9280;50.276;18.650;2022-11-06T12:43:59;27.10;37.00
18309;DHT22;9280;50.276;18.650;2022-11-06T12:46:51;27.20;37.20
18309;DHT22;9280;50.276;18.650;2022-11-06T12:50:08;27.20;36.60
18309;DHT22;9280;50.276;18.650;2022-11-06T12:53:19;26.20;38.80
18309;DHT22;9280;50.276;18.650;2022-11-06T12:56:14;26.40;37.50
18309;DHT22;9280;50.276;18.650;2022-11-06T12:59:24;27.00;37.20
18309;DHT22;9280;50.276;18.650;2022-11-06T13:02:28;27.40;36.70
18309;DHT22;9280;50.276;18.650;2022-11-06T13:05:17;26.80;37.00
18309;DHT22;9280;50.276;18.650;2022-11-06T13:08:12;26.60;37.00
18309;DHT22;9280;50.276;18.650;2022-11-06T13:11:12;27.20;37.10
18309;DHT22;9280;50.276;18.650;2022-11-06T13:14:06;27.70;34.30
18309;DHT22;9280;50.276;18.650;2022-11-06T13:17:00;26.00;37.50
18309;DHT22;9280;50.276;18.650;2022-11-06T13:19:53;26.90;37.10
18309;DHT22;9280;50.276;18.650;2022-11-06T13:22:44;27.70;34.50
18309;DHT22;9280;50.276;18.650;2022-11-06T13:25:37;27.20;34.70
18309;DHT22;9280;50.276;18.650;2022-11-06T13:28:30;27.20;34.40
18309;DHT22;9280;50.276;18.650;2022-11-06T13:31:20;27.20;34.10
18309;DHT22;9280;50.276;18.650;2022-11-06T13:34:15;27.00;33.60
18309;DHT22;9280;50.276;18.650;2022-11-06T13:37:06;26.40;35.50
18309;DHT22;9280;50.276;18.650;2022-11-06T13:40:01;26.70;35.70
18309;DHT22;9280;50.276;18.650;2022-11-06T13:42:54;26.40;35.10
18309;DHT22;9280;50.276;18.650;2022-11-06T13:45:47;26.00;35.90
18309;DHT22;9280;50.276;18.650;2022-11-06T13:48:43;25.80;36.80
18309;DHT22;9280;50.276;18.650;2022-11-06T13:51:40;24.70;39.10
18309;DHT22;9280;50.276;18.650;2022-11-06T13:54:38;24.90;37.90
18309;DHT22;9280;50.276;18.650;2022-11-06T13:57:49;22.60;41.60
18309;DHT22;9280;50.276;18.650;2022-11-06T14:00:56;21.20;44.80
18309;DHT22;9280;50.276;18.650;2022-11-06T14:04:07;20.00;47.80
18309;DHT22;9280;50.276;18.650;2022-11-06T14:06:56;19.90;49.10
18309;DHT22;9280;50.276;18.650;2022-11-06T14:09:45;19.10;52.20
18309;DHT22;9280;50.276;18.650;2022-11-06T14:12:32;19.40;51.80
18309;DHT22;9280;50.276;18.650;2022-11-06T14:15:27;19.30;52.30
18309;DHT22;9280;50.276;18.650;2022-11-06T14:18:21;18.80;53.60
18309;DHT22;9280;50.276;18.650;2022-11-06T14:24:33;18.50;54.40
18309;DHT22;9280;50.276;18.650;2022-11-06T14:30:42;15.30;62.40
18309;DHT22;9280;50.276;18.650;2022-11-06T14:36:52;13.30;75.60
18309;DHT22;9280;50.276;18.650;2022-11-06T14:40:04;12.80;80.60
18309;DHT22;9280;50.276;18.650;2022-11-06T14:42:52;12.70;82.70
18309;DHT22;9280;50.276;18.650;2022-11-06T14:45:39;12.50;84.30
18309;DHT22;9280;50.276;18.650;2022-11-06T14:48:37;11.90;90.60
18309;DHT22;9280;50.276;18.650;2022-11-06T14:51:26;11.30;94.60
18309;DHT22;9280;50.276;18.650;2022-11-06T14:54:20;11.00;98.70
18309;DHT22;9280;50.276;18.650;2022-11-06T14:57:10;10.70;99.90
18309;DHT22;9280;50.276;18.650;2022-11-06T15:00:00;10.70;99.90
18309;DHT22;9280;50.276;18.650;2022-11-06T15:02:47;10.60;99.90
18309;DHT22;9280;50.276;18.650;2022-11-06T15:05:33;10.50;99.90
18309;DHT22;9280;50.276;18.650;2022-11-06T15:08:56;10.30;99.90
18309;DHT22;9280;50.276;18.650;2022-11-06T15:11:58;10.00;99.90
18309;DHT22;9280;50.276;18.650;2022-11-06T15:15:04;9.70;99.90
18309;DHT22;9280;50.276;18.650;2022-11-06T15:17:59;9.40;99.90
18309;DHT22;9280;50.276;18.650;2022-11-06T15:20:48;9.10;99.90
18309;DHT22;9280;50.276;18.650;2022-11-06T15:23:40;8.90;99.90
18309;DHT22;9280;50.276;18.650;2022-11-06T15:26:32;8.70;99.90
18309;DHT22;9280;50.276;18.650;2022-11-06T15:29:23;8.50;99.90
18309;DHT22;9280;50.276;18.650;2022-11-06T15:32:12;8.30;99.90
18309;DHT22;9280;50.276;18.650;2022-11-06T15:35:03;8.20;99.90
18309;DHT22;9280;50.276;18.650;2022-11-06T15:37:52;8.00;99.90
18309;DHT22;9280;50.276;18.650;2022-11-06T15:40:40;7.90;99.90
18309;DHT22;9280;50.276;18.650;2022-11-06T15:43:29;7.70;99.90
18309;DHT22;9280;50.276;18.650;2022-11-06T15:46:20;7.60;99.90
18309;DHT22;9280;50.276;18.650;2022-11-06T15:49:13;7.60;99.90
18309;DHT22;9280;50.276;18.650;2022-11-06T15:52:02;7.50;99.90
18309;DHT22;9280;50.276;18.650;2022-11-06T15:54:52;7.40;99.90
18309;DHT22;9280;50.276;18.650;2022-11-06T15:57:39;7.40;99.90
18309;DHT22;9280;50.276;18.650;2022-11-06T16:00:25;7.30;99.90
18309;DHT22;9280;50.276;18.650;2022-11-06T16:03:15;7.20;99.90
18309;DHT22;9280;50.276;18.650;2022-11-06T16:06:02;7.10;99.90
18309;DHT22;9280;50.276;18.650;2022-11-06T16:08:49;7.00;99.90
18309;DHT22;9280;50.276;18.650;2022-11-06T16:11:36;6.90;99.90
18309;DHT22;9280;50.276;18.650;2022-11-06T16:14:22;6.90;99.90
18309;DHT22;9280;50.276;18.650;2022-11-06T16:17:10;6.90;99.90
18309;DHT22;9280;50.276;18.650;2022-11-06T16:19:59;6.80;99.90
18309;DHT22;9280;50.276;18.650;2022-11-06T16:22:45;6.80;99.90
18309;DHT22;9280;50.276;18.650;2022-11-06T16:25:31;6.80;99.90
18309;DHT22;9280;50.276;18.650;2022-11-06T16:28:19;6.70;99.90
18309;DHT22;9280;50.276;18.650;2022-11-06T16:31:09;6.70;99.90
18309;DHT22;9280;50.276;18.650;2022-11-06T16:33:56;6.60;99.90
18309;DHT22;9280;50.276;18.650;2022-11-06T16:36:56;6.60;99.90
18309;DHT22;9280;50.276;18.650;2022-11-06T16:39:44;6.50;99.90
18309;DHT22;9280;50.276;18.650;2022-11-06T16:42:31;6.50;99.90
18309;DHT22;9280;50.276;18.650;2022-11-06T16:45:20;6.40;99.90
18309;DHT22;9280;50.276;18.650;2022-11-06T16:48:24;6.40;99.90
18309;DHT22;9280;50.276;18.650;2022-11-06T16:51:13;6.30;99.90
18309;DHT22;9280;50.276;18.650;2022-11-06T16:54:04;6.30;99.90
18309;DHT22;9280;50.276;18.650;2022-11-06T16:56:50;6.20;99.90
18309;DHT22;9280;50.276;18.650;2022-11-06T16:59:38;6.10;99.90
18309;DHT22;9280;50.276;18.650;2022-11-06T17:02:27;6.10;99.90
18309;DHT22;9280;50.276;18.650;2022-11-06T17:05:17;6.10;99.90
18309;DHT22;9280;50.276;18.650;2022-11-06T17:08:05;6.00;99.90
18309;DHT22;9280;50.276;18.650;2022-11-06T17:10:53;6.00;99.90
18309;DHT22;9280;50.276;18.650;2022-11-06T17:13:42;5.90;99.90
18309;DHT22;9280;50.276;18.650;2022-11-06T17:16:29;6.00;99.90
18309;DHT22;9280;50.276;18.650;2022-11-06T17:19:15;5.90;99.90
18309;DHT22;9280;50.276;18.650;2022-11-06T17:22:07;5.90;99.90
18309;DHT22;9280;50.276;18.650;2022-11-06T17:24:54;5.90;99.90
18309;DHT22;9280;50.276;18.650;2022-11-06T17:27:41;5.80;99.90
18309;DHT22;9280;50.276;18.650;2022-11-06T17:30:27;5.80;99.90
18309;DHT22;9280;50.276;18.650;2022-11-06T17:33:13;5.70;99.90
18309;DHT22;9280;50.276;18.650;2022-11-06T17:36:00;5.70;99.90
18309;DHT22;9280;50.276;18.650;2022-11-06T17:38:46;5.70;99.90
18309;DHT22;9280;50.276;18.650;2022-11-06T17:41:33;5.70;99.90
18309;DHT22;9280;50.276;18.650;2022-11-06T17:44:20;5.60;99.90
18309;DHT22;9280;50.276;18.650;2022-11-06T17:47:06;5.60;99.90
18309;DHT22;9280;50.276;18.650;2022-11-06T17:49:52;5.50;99.90
18309;DHT22;9280;50.276;18.650;2022-11-06T17:52:38;5.50;99.90
18309;DHT22;9280;50.276;18.650;2022-11-06T17:55:24;5.40;99.90
18309;DHT22;9280;50.276;18.650;2022-11-06T17:58:10;5.40;99.90
18309;DHT22;9280;50.276;18.650;2022-11-06T18:01:05;5.40;99.90
18309;DHT22;9280;50.276;18.650;2022-11-06T18:03:51;5.30;99.90
18309;DHT22;9280;50.276;18.650;2022-11-06T18:06:38;5.30;99.90
18309;DHT22;9280;50.276;18.650;2022-11-06T18:09:24;5.20;99.90
18309;DHT22;9280;50.276;18.650;2022-11-06T18:12:14;5.20;99.90
18309;DHT22;9280;50.276;18.650;2022-11-06T18:15:01;5.20;99.90
18309;DHT22;9280;50.276;18.650;2022-11-06T18:17:49;5.20;99.90
18309;DHT22;9280;50.276;18.650;2022-11-06T18:20:35;5.10;99.90
18309;DHT22;9280;50.276;18.650;2022-11-06T18:23:21;5.10;99.90